Seattle, WA

2:06 AM PDT on October 20, 2014 (GMT -0700)
Phinney Ridge | Change Station
CLOSE
Current Station
Personal Weather Station
Location: Seattle, WA
Elevation: 300 ft
Nearby Weather Stations

Elev 300 ft 47.66 °N, 122.36 °W | Updated 8 seconds ago

Rain
Rain
58.7 °F
Feels Like 58.7 °F
N
1.0
Wind Variable Wind from SSE
Gusts 4.0 mph

Today
High -- | Low -- °F
--% Chance of Precip.
Yesterday
High -- | Low -- °F
Precip. -- in
7:35 AM 6:11 PM
Waning Crescent, 12% visible
Pressure 29.71 in
Visibility 10.0 miles
Clouds Few 6000 ft
Overcast 8500 ft
Dew Point 56 °F
Humidity 91%
Rainfall 0.04 in
Snow Depth Not available.
UV 0 out of 12
Pollen 1.30 out of 12
Air Quality Not available.
Flu Activity Sporadic
METAR KBFI 200853Z 14004KT 10SM -RA FEW060 OVC085 17/13 A2971 RMK AO2 RAB28 SLP061 P0001 60001 T01670133 53006

More Conditions Fewer Conditions

Pressure 29.71 in
Visibility 10.0 miles
Clouds Few 6000 ft
Overcast 8500 ft
Dew Point 56 °F
Humidity 91%
Rainfall 0.04 in
Snow Depth Not available.
UV 0 out of 12
Pollen 1.30 out of 12
Air Quality Not available.
Flu Activity Sporadic
METAR KBFI 200853Z 14004KT 10SM -RA FEW060 OVC085 17/13 A2971 RMK AO2 RAB28 SLP061 P0001 60001 T01670133 53006

More Conditions Fewer Conditions

10-Day Weather Forecast

Almanac

Astronomy

Oct. 20, 2014 Rise Set
Actual Time 7:35 AM PDT 6:11 PM PDT
Civil Twilight 7:04 AM PDT 6:43 PM PDT
Nautical Twilight 6:28 AM PDT 7:19 PM PDT
Astronomical Twilight 5:52 AM PDT 7:54 PM PDT
Moon 4:16 AM PDT 4:48 PM PDT
Length of Visible Light 11h 38m
Length of Day
10h 35m
Waning Crescent, 12% of the Moon is Illuminated
Today
Waning Crescent
Oct 23
New
Oct 30
First Quarter
Nov 6
Full
Nov 14
Last Quarter

Today's Extremes

State Highs State Lows

Community

WunderPhotos

Upload Photos

1,763,316 photos uploaded!

Nearby

Air Quality

  Air Quality AQ Index Pollutant
Monday Good
PM2.5
Tuesday Good
PM2.5

Snow Depth

Station Depth Elevation
Alpine Meadows 0 in 3500 ft
Dungeness 0 in 4100 ft
Mount Gardner 0 in 3000 ft
Meadows Pass 0 in 3500 ft
Stevens Pass 0 in 4070 ft

Earthquake Activity

City Distance Mag. Time & Date
No recent earthquake activity has been reported nearby.
Minimum magnitude displayed is 2.5.

Coastal Water Temperatures

Place Temperature
Port Townsend, WA 52.0 °F
Seattle, WA 55.0 °F
Friday Harbor, WA 51.1 °F
Tacoma, WA 55.0 °F

Nearby Weather Stations